Time;durP1;ratioP1;P1;durP2;ratioP2;P2;SDS_P1;SDS_P2;PMS_P1;PMS_P2;Temp;Humidity;BMP_temperature;BMP_pressure;BME280_temperature;BME280_humidity;BME280_pressure;Samples;Min_cycle;Max_cycle;Signal;HPM_P1;HPM_P2
2024/02/12 00:04:29;;;;;;;0.50;0.38;;;;;;;10.54;71.63;98523.16;10323098;28;20178;-60
2024/02/12 00:09:31;;;;;;;1.90;0.40;;;;;;;10.43;71.78;98535.44;10319194;28;20601;-61
2024/02/12 00:14:36;;;;;;;2.67;0.45;;;;;;;10.40;72.20;98532.38;10316791;28;20509;-62
2024/02/12 00:19:38;;;;;;;2.50;0.40;;;;;;;10.48;71.66;98530.22;10304569;28;20062;-62
2024/02/12 00:24:41;;;;;;;5.05;0.60;;;;;;;10.46;71.94;98532.31;10317038;28;20081;-61
2024/02/12 00:29:43;;;;;;;1.45;0.35;;;;;;;10.42;72.04;98535.66;10324986;28;20058;-61
2024/02/12 00:34:45;;;;;;;3.03;0.50;;;;;;;10.36;72.69;98534.66;10321104;28;20041;-62
2024/02/12 00:39:52;;;;;;;2.38;0.60;;;;;;;10.37;72.85;98532.78;10308216;28;20057;-64
2024/02/12 00:44:56;;;;;;;4.20;0.73;;;;;;;10.40;72.66;98548.50;10312906;28;20061;-65
2024/02/12 00:49:59;;;;;;;5.28;0.80;;;;;;;10.43;72.54;98548.06;10307326;28;20078;-63
2024/02/12 00:55:01;;;;;;;1.73;0.50;;;;;;;10.45;72.47;98543.28;10305459;28;20149;-65
2024/02/12 01:00:04;;;;;;;2.67;0.50;;;;;;;10.39;72.95;98554.91;10296934;28;20054;-65
2024/02/12 01:05:08;;;;;;;2.60;0.80;;;;;;;10.31;72.90;98556.81;10294353;28;20560;-68
2024/02/12 01:10:10;;;;;;;1.88;0.60;;;;;;;10.09;74.07;98559.03;10300883;28;20065;-67
2024/02/12 01:15:12;;;;;;;3.97;0.60;;;;;;;9.98;74.43;98559.72;10310358;28;20043;-67
2024/02/12 01:20:16;;;;;;;2.10;0.70;;;;;;;9.80;75.29;98562.31;10303689;28;20550;-68
2024/02/12 01:25:18;;;;;;;3.28;0.90;;;;;;;9.76;75.69;98563.78;10293540;28;20058;-66
2024/02/12 01:30:20;;;;;;;3.35;0.90;;;;;;;9.83;75.36;98564.53;10309472;28;20054;-65
2024/02/12 01:35:22;;;;;;;3.45;0.60;;;;;;;9.82;75.21;98569.09;10297320;28;20046;-67
2024/02/12 01:40:24;;;;;;;2.05;0.90;;;;;;;9.83;75.81;98562.69;10300366;28;21013;-67
2024/02/12 01:45:26;;;;;;;2.95;1.00;;;;;;;9.81;76.05;98563.94;10303009;28;20065;-67
2024/02/12 01:50:29;;;;;;;1.88;0.80;;;;;;;9.86;76.02;98575.69;10302762;28;20062;-63
2024/02/12 01:55:31;;;;;;;3.95;0.90;;;;;;;9.85;76.24;98568.69;10299751;28;20066;-64
2024/02/12 02:00:32;;;;;;;3.97;0.93;;;;;;;10.03;75.86;98573.31;10302618;28;20137;-63
2024/02/12 02:05:35;;;;;;;3.47;0.70;;;;;;;10.08;75.83;98578.84;10305729;28;20413;-65
2024/02/12 02:10:38;;;;;;;3.95;0.90;;;;;;;10.15;75.51;98592.25;10302768;28;20549;-67
2024/02/12 02:15:42;;;;;;;2.78;1.08;;;;;;;10.07;76.35;98589.78;10306200;28;20080;-66
2024/02/12 02:20:43;;;;;;;2.22;0.93;;;;;;;10.02;76.62;98590.44;10302308;28;20050;-63
2024/02/12 02:25:45;;;;;;;2.35;0.93;;;;;;;9.97;76.58;98589.44;10298449;28;20051;-67
2024/02/12 02:30:50;;;;;;;2.28;1.00;;;;;;;9.92;76.79;98588.22;10300589;28;20051;-67
2024/02/12 02:35:52;;;;;;;2.15;0.70;;;;;;;9.92;77.08;98590.91;10306296;28;20421;-64
2024/02/12 02:40:54;;;;;;;3.22;0.75;;;;;;;9.91;77.04;98589.28;10300671;28;20055;-64
2024/02/12 02:45:56;;;;;;;3.38;0.95;;;;;;;9.95;77.09;98589.66;10298003;28;20081;-64
2024/02/12 02:50:57;;;;;;;3.92;1.15;;;;;;;9.87;77.14;98600.66;10304356;28;20086;-64
2024/02/12 02:55:59;;;;;;;1.80;0.80;;;;;;;9.85;77.48;98597.34;10301532;28;20501;-63
2024/02/12 03:01:00;;;;;;;1.83;0.88;;;;;;;9.87;77.49;98604.19;10302211;28;20073;-63
2024/02/12 03:06:05;;;;;;;5.32;1.15;;;;;;;9.81;77.88;98602.31;10301149;28;20497;-63
2024/02/12 03:11:08;;;;;;;3.38;1.00;;;;;;;9.76;77.68;98609.38;10301810;28;20356;-63
2024/02/12 03:16:16;;;;;;;2.40;1.13;;;;;;;9.81;77.70;98612.25;10300585;28;20058;-63
2024/02/12 03:21:20;;;;;;;3.47;1.20;;;;;;;9.73;77.99;98614.16;10301171;28;20158;-63
2024/02/12 03:26:21;;;;;;;2.97;1.75;;;;;;;9.70;78.05;98622.63;10296122;28;20050;-62
2024/02/12 03:31:23;;;;;;;2.78;1.50;;;;;;;9.75;78.01;98632.69;10298028;28;20135;-62
2024/02/12 03:36:25;;;;;;;3.47;1.40;;;;;;;9.76;77.88;98637.03;10297443;28;20396;-62
2024/02/12 03:41:27;;;;;;;4.07;1.73;;;;;;;9.72;78.25;98641.19;10294046;28;20043;-62
2024/02/12 03:46:31;;;;;;;3.03;1.58;;;;;;;9.68;78.16;98648.03;10300294;28;20046;-62
2024/02/12 04:02:13;;;;;;;3.40;2.10;;;;;;;9.66;78.68;98668.88;10301185;28;20057;-62
2024/02/12 04:07:15;;;;;;;5.63;2.70;;;;;;;9.70;78.83;98675.47;10303912;28;20045;-64
2024/02/12 04:12:17;;;;;;;5.07;2.45;;;;;;;9.75;78.61;98681.00;10302099;28;20054;-67
2024/02/12 04:17:20;;;;;;;4.32;2.15;;;;;;;9.75;78.43;98694.41;10300923;28;20051;-64
2024/02/12 04:22:24;;;;;;;6.65;1.95;;;;;;;9.76;78.83;98704.13;10306282;28;20134;-64
2024/02/12 04:27:25;;;;;;;3.33;1.73;;;;;;;9.81;78.69;98704.28;10297917;28;20127;-64
2024/02/12 04:32:27;;;;;;;5.35;2.20;;;;;;;9.83;78.55;98701.41;10300230;28;20055;-63
2024/02/12 04:37:28;;;;;;;7.43;1.73;;;;;;;9.81;78.82;98708.84;10294020;28;20046;-64
2024/02/12 04:42:30;;;;;;;6.80;2.17;;;;;;;9.76;78.74;98709.50;10300474;28;20082;-64
2024/02/12 04:47:32;;;;;;;2.97;1.95;;;;;;;9.72;78.70;98721.69;10302508;28;20109;-64
2024/02/12 04:52:34;;;;;;;4.35;1.60;;;;;;;9.73;78.64;98726.00;10301694;28;20051;-63
2024/02/12 04:57:38;;;;;;;2.30;1.38;;;;;;;9.75;78.42;98731.16;10299206;28;20058;-64
2024/02/12 05:02:40;;;;;;;5.30;1.83;;;;;;;9.76;78.57;98739.00;10302908;28;20054;-64
2024/02/12 05:07:42;;;;;;;3.63;1.67;;;;;;;9.76;78.39;98741.69;10297236;28;20061;-63
2024/02/12 05:12:44;;;;;;;5.65;1.90;;;;;;;9.73;78.73;98751.00;10300804;28;20484;-63
2024/02/12 05:18:02;;;;;;;4.25;1.58;;;;;;;9.78;78.82;98758.41;10303049;28;20074;-64
2024/02/12 05:23:08;;;;;;;2.42;1.35;;;;;;;9.76;78.82;98762.34;10300707;28;20047;-63
2024/02/12 05:28:10;;;;;;;4.50;0.90;;;;;;;9.78;78.84;98771.00;10304871;28;20057;-63
2024/02/12 05:33:11;;;;;;;2.97;1.20;;;;;;;9.82;79.07;98775.72;10301618;28;20056;-63
2024/02/12 05:38:13;;;;;;;9.80;2.72;;;;;;;9.85;78.74;98775.31;10302857;28;20054;-64
2024/02/12 05:43:15;;;;;;;3.20;1.00;;;;;;;9.84;79.15;98778.22;10301632;28;20058;-63
2024/02/12 05:48:16;;;;;;;6.47;0.73;;;;;;;9.83;78.97;98781.91;10306442;28;20571;-63
2024/02/12 05:53:18;;;;;;;2.72;0.70;;;;;;;9.87;79.19;98789.34;10303833;28;20057;-64
2024/02/12 05:58:21;;;;;;;2.70;0.80;;;;;;;9.92;78.89;98789.53;10298825;28;20062;-63
2024/02/12 06:03:23;;;;;;;1.92;0.60;;;;;;;9.88;78.80;98799.03;10305108;28;20051;-64
2024/02/12 06:08:24;;;;;;;2.65;0.80;;;;;;;9.96;78.66;98795.31;10294462;28;20058;-64
2024/02/12 06:13:26;;;;;;;1.58;0.50;;;;;;;10.01;78.35;98803.56;10302535;28;20073;-63
2024/02/12 06:18:27;;;;;;;3.45;0.93;;;;;;;10.02;78.78;98809.75;10304882;28;20581;-64
2024/02/12 06:23:29;;;;;;;1.77;0.82;;;;;;;10.13;78.32;98817.16;10301982;28;20564;-65
2024/02/12 06:28:30;;;;;;;3.95;1.60;;;;;;;10.12;78.20;98832.44;10300559;28;20486;-62
2024/02/12 06:33:32;;;;;;;2.08;0.60;;;;;;;10.06;78.34;98832.47;10297979;28;20120;-64
2024/02/12 06:38:34;;;;;;;0.90;0.50;;;;;;;10.03;78.68;98843.59;10303154;28;20125;-62
2024/02/12 06:43:36;;;;;;;1.80;0.60;;;;;;;10.12;78.22;98845.84;10307562;28;20051;-64
2024/02/12 06:48:39;;;;;;;1.98;0.50;;;;;;;10.13;78.22;98857.44;10298612;28;20082;-68
2024/02/12 06:53:44;;;;;;;0.82;0.45;;;;;;;10.13;78.36;98870.88;10301900;28;20054;-65
2024/02/12 06:58:45;;;;;;;4.22;0.60;;;;;;;10.13;77.97;98876.22;10297403;28;20054;-66
2024/02/12 07:03:47;;;;;;;1.10;0.52;;;;;;;10.12;78.19;98879.94;10292664;28;20101;-65
2024/02/12 07:08:49;;;;;;;1.33;0.75;;;;;;;10.08;78.17;98901.00;10303291;28;20047;-64
2024/02/12 07:13:50;;;;;;;2.65;0.80;;;;;;;10.20;78.06;98898.50;10303681;28;20067;-67
2024/02/12 07:18:52;;;;;;;2.35;0.68;;;;;;;10.21;77.47;98900.19;10300375;28;21495;-67
2024/02/12 07:23:54;;;;;;;0.73;0.50;;;;;;;10.19;77.84;98923.72;10303061;28;20062;-67
2024/02/12 07:28:56;;;;;;;2.33;0.80;;;;;;;10.19;77.79;98933.63;10297651;28;20090;-67
2024/02/12 07:34:00;;;;;;;3.00;0.68;;;;;;;10.20;77.48;98929.91;10298384;28;20549;-67
2024/02/12 07:39:03;;;;;;;1.00;0.50;;;;;;;10.26;77.43;98939.81;10305645;28;20042;-67
2024/02/12 07:44:05;;;;;;;2.83;1.00;;;;;;;10.27;77.27;98946.84;10296319;28;20063;-68
2024/02/12 07:49:08;;;;;;;1.60;0.77;;;;;;;10.32;76.92;98950.56;10296515;28;20054;-67
2024/02/12 07:54:09;;;;;;;4.47;1.10;;;;;;;10.35;77.05;98957.41;10303078;28;20123;-68
2024/02/12 07:59:11;;;;;;;4.65;1.63;;;;;;;10.38;76.62;98970.41;10301541;28;20062;-67
2024/02/12 08:04:12;;;;;;;4.00;1.40;;;;;;;10.38;76.45;98975.78;10305471;28;20142;-68
2024/02/12 08:09:14;;;;;;;3.45;1.38;;;;;;;10.44;76.90;98980.31;10299385;28;20101;-68
2024/02/12 08:14:16;;;;;;;3.40;1.17;;;;;;;10.51;76.09;98975.75;10295800;28;20105;-68
2024/02/12 08:19:18;;;;;;;3.92;1.55;;;;;;;10.60;76.13;98994.34;10303491;28;20043;-68
2024/02/12 08:24:20;;;;;;;4.05;1.83;;;;;;;10.55;76.33;98997.66;10305796;28;20692;-68
2024/02/12 08:29:23;;;;;;;7.13;2.03;;;;;;;10.62;75.91;99000.34;10308140;28;20062;-68
2024/02/12 08:34:25;;;;;;;3.67;1.63;;;;;;;10.62;75.96;99014.59;10305307;28;20070;-68
2024/02/12 08:39:26;;;;;;;4.53;1.95;;;;;;;10.67;75.86;99027.41;10306817;28;20129;-68
2024/02/12 08:44:28;;;;;;;6.93;2.03;;;;;;;10.80;75.61;99024.72;10314297;28;20054;-68
2024/02/12 08:49:29;;;;;;;4.65;2.05;;;;;;;10.75;75.12;99032.56;10306553;28;20054;-66
2024/02/12 08:54:31;;;;;;;3.33;1.83;;;;;;;10.91;74.93;99036.66;10308438;28;20067;-66
2024/02/12 08:59:34;;;;;;;4.43;1.88;;;;;;;11.01;74.95;99037.03;10312439;28;20050;-66
2024/02/12 09:04:36;;;;;;;5.88;2.58;;;;;;;11.13;74.36;99044.47;10305100;28;20039;-67
2024/02/12 09:09:37;;;;;;;7.85;2.53;;;;;;;11.17;74.67;99051.06;10293522;28;20046;-66
2024/02/12 09:14:39;;;;;;;5.47;3.33;;;;;;;11.24;73.86;99058.09;10307626;28;20058;-65
2024/02/12 09:19:44;;;;;;;5.60;2.28;;;;;;;11.38;73.90;99066.94;10303095;28;20078;-65
2024/02/12 09:24:46;;;;;;;4.78;1.70;;;;;;;11.44;73.41;99067.94;10305122;28;20132;-65
2024/02/12 09:29:47;;;;;;;3.97;2.65;;;;;;;11.51;73.43;99076.81;10306783;28;20053;-66
2024/02/12 09:34:50;;;;;;;4.53;2.28;;;;;;;11.55;73.11;99071.81;10304485;28;20106;-66
2024/02/12 09:39:53;;;;;;;5.35;2.47;;;;;;;11.67;72.78;99086.25;10309146;28;20045;-66
2024/02/12 09:45:07;;;;;;;7.25;2.17;;;;;;;11.80;72.27;99088.88;10302904;28;20061;-66
2024/02/12 09:50:10;;;;;;;6.63;1.77;;;;;;;11.92;72.16;99097.13;10308222;28;20060;-66
2024/02/12 09:55:15;;;;;;;4.40;2.05;;;;;;;12.02;72.14;99099.38;10307501;28;20050;-66
2024/02/12 10:00:19;;;;;;;8.52;3.30;;;;;;;11.96;72.50;99108.31;10299084;28;20149;-66
2024/02/12 10:05:22;;;;;;;6.68;2.13;;;;;;;11.89;72.49;99119.13;10301249;28;20074;-66
2024/02/12 10:10:24;;;;;;;5.75;2.33;;;;;;;11.89;71.87;99124.50;10303400;28;20105;-66
2024/02/12 10:15:28;;;;;;;6.40;2.58;;;;;;;11.83;71.78;99130.72;10302820;28;20051;-66
2024/02/12 10:20:30;;;;;;;6.00;2.40;;;;;;;11.83;71.56;99139.63;10307043;28;20061;-66
2024/02/12 10:25:32;;;;;;;5.20;2.40;;;;;;;11.80;71.40;99144.59;10296168;28;20061;-66
2024/02/12 10:30:36;;;;;;;6.43;2.58;;;;;;;11.73;71.65;99146.50;10298529;28;20130;-67
2024/02/12 10:35:39;;;;;;;6.70;3.15;;;;;;;11.59;71.33;99153.78;10304426;28;20054;-66
2024/02/12 10:41:03;;;;;;;5.53;2.50;;;;;;;11.54;71.17;99162.50;10306580;28;20055;-66
2024/02/12 10:46:06;;;;;;;6.10;2.08;;;;;;;11.62;71.09;99161.44;10308898;28;20061;-66
2024/02/12 10:51:08;;;;;;;7.07;1.88;;;;;;;11.55;71.42;99164.16;10306468;28;20825;-66
2024/02/12 10:56:10;;;;;;;12.13;3.08;;;;;;;11.52;71.14;99167.28;10304450;28;20055;-65
2024/02/12 11:01:13;;;;;;;5.47;2.35;;;;;;;11.52;70.79;99169.97;10305255;28;20095;-65
2024/02/12 11:06:17;;;;;;;9.07;2.70;;;;;;;11.52;70.62;99167.28;10299927;28;20501;-65
2024/02/12 11:11:28;;;;;;;6.88;2.20;;;;;;;11.39;70.95;99186.13;10309474;28;20074;-67
2024/02/12 11:16:31;;;;;;;5.55;1.83;;;;;;;11.40;71.19;99191.31;10321646;28;20133;-66
2024/02/12 11:21:35;;;;;;;4.80;1.73;;;;;;;11.35;70.80;99188.41;10320073;28;20070;-67
2024/02/12 11:26:43;;;;;;;5.30;2.08;;;;;;;11.25;71.18;99196.91;10328462;28;20069;-66
2024/02/12 11:31:48;;;;;;;1.92;1.00;;;;;;;11.14;71.02;99200.25;10308066;28;20153;-65
2024/02/12 11:37:00;;;;;;;2.78;0.80;;;;;;;11.24;70.44;99206.03;10310615;28;20046;-65
2024/02/12 11:42:04;;;;;;;2.53;0.65;;;;;;;11.40;70.11;99203.94;10310559;28;20050;-65
2024/02/12 11:47:06;;;;;;;1.00;0.60;;;;;;;11.37;69.40;99212.44;10302552;28;20058;-65
2024/02/12 11:52:08;;;;;;;2.83;0.50;;;;;;;11.10;69.38;99213.28;10309530;28;20046;-65
2024/02/12 11:57:11;;;;;;;1.40;0.60;;;;;;;11.27;68.90;99205.59;10310183;28;20055;-66
2024/02/12 12:02:13;;;;;;;1.75;0.40;;;;;;;11.43;68.53;99207.06;10314888;28;20051;-65
2024/02/12 12:07:18;;;;;;;1.17;0.40;;;;;;;11.77;68.00;99204.25;10312863;28;20050;-65
2024/02/12 12:12:25;;;;;;;2.72;0.70;;;;;;;11.94;67.60;99212.72;10321390;28;20046;-65
2024/02/12 12:17:28;;;;;;;1.80;0.93;;;;;;;12.09;67.74;99207.91;10314112;28;20085;-66
2024/02/12 12:22:36;;;;;;;;;;;;;;;12.20;68.21;99204.53;10305330;28;20054;-67
2024/02/12 12:27:39;;;;;;;4.03;0.93;;;;;;;12.50;67.46;99204.78;10307122;28;19933;-68
2024/02/12 12:32:47;;;;;;;0.95;0.65;;;;;;;12.97;66.33;99199.03;10303838;28;20050;-68
2024/02/12 12:37:50;;;;;;;2.85;0.80;;;;;;;13.08;65.79;99211.81;10297156;28;20065;-67
2024/02/12 12:42:57;;;;;;;1.38;0.70;;;;;;;13.36;65.24;99209.75;10316532;28;20046;-67
2024/02/12 12:47:59;;;;;;;8.73;2.00;;;;;;;13.66;64.59;99208.00;10307599;28;20054;-69
2024/02/12 12:53:00;;;;;;;4.22;0.88;;;;;;;13.69;63.80;99217.50;10297296;28;20067;-68
2024/02/12 12:58:02;;;;;;;2.35;0.75;;;;;;;13.48;63.52;99208.78;10297639;28;20062;-68
2024/02/12 13:03:04;;;;;;;1.48;0.52;;;;;;;13.19;63.33;99212.16;10303579;28;20051;-67
2024/02/12 13:08:08;;;;;;;0.77;0.55;;;;;;;13.09;62.78;99223.44;10306030;28;20043;-67
2024/02/12 13:13:22;;;;;;;2.25;0.63;;;;;;;13.04;62.43;99224.09;10304598;28;20681;-67
2024/02/12 13:18:29;;;;;;;0.75;0.40;;;;;;;13.00;61.56;99225.59;10317288;28;20047;-67
2024/02/12 13:23:31;;;;;;;0.82;0.40;;;;;;;13.02;60.75;99234.28;10307083;28;20054;-68
2024/02/12 13:28:33;;;;;;;2.25;0.50;;;;;;;13.21;60.20;99240.59;10297908;28;20058;-65
2024/02/12 13:33:34;;;;;;;1.20;0.50;;;;;;;13.26;60.27;99238.03;10304376;28;20129;-66
2024/02/12 13:38:39;;;;;;;1.10;0.43;;;;;;;13.33;60.11;99239.88;10299434;28;20046;-67
2024/02/12 13:43:41;;;;;;;2.00;0.70;;;;;;;13.77;59.33;99240.69;10303107;28;20612;-65
2024/02/12 13:48:45;;;;;;;1.15;0.55;;;;;;;14.24;58.19;99238.28;10298990;28;20105;-65
2024/02/12 13:53:47;;;;;;;1.35;0.50;;;;;;;14.55;57.67;99241.81;10303030;28;20501;-65
2024/02/12 13:58:49;;;;;;;3.38;0.80;;;;;;;14.69;57.34;99256.81;10308072;28;20039;-66
2024/02/12 14:03:50;;;;;;;0.77;0.40;;;;;;;14.27;57.58;99254.84;10303014;28;20164;-66
2024/02/12 14:08:52;;;;;;;1.25;0.40;;;;;;;13.84;57.97;99263.91;10306764;28;20051;-66
2024/02/12 14:13:54;;;;;;;2.38;0.40;;;;;;;13.69;57.63;99276.94;10307896;28;20811;-66
2024/02/12 14:18:57;;;;;;;2.33;0.60;;;;;;;13.48;57.66;99283.56;10306857;28;20123;-65
2024/02/12 14:23:58;;;;;;;1.10;0.38;;;;;;;12.39;59.73;99313.25;10310968;28;20062;-65
2024/02/12 14:29:00;;;;;;;0.50;0.25;;;;;;;10.98;61.88;99325.19;10316194;28;20158;-67
2024/02/12 14:34:02;;;;;;;0.70;0.25;;;;;;;10.42;63.39;99342.38;10341112;28;20051;-67
2024/02/12 14:39:04;;;;;;;3.35;0.30;;;;;;;10.48;63.17;99354.19;10330264;28;20058;-67
2024/02/12 14:44:06;;;;;;;2.05;0.30;;;;;;;10.90;62.24;99344.22;10319420;28;20057;-66
2024/02/12 14:49:09;;;;;;;0.73;0.30;;;;;;;11.15;62.10;99343.63;10318547;28;20135;-66
2024/02/12 14:54:12;;;;;;;2.35;0.50;;;;;;;11.41;62.25;99349.03;10320593;28;20514;-71
2024/02/12 14:59:15;;;;;;;0.65;0.40;;;;;;;11.58;62.35;99346.75;10296007;28;20126;-62
2024/02/12 15:04:17;;;;;;;0.70;0.40;;;;;;;11.82;61.97;99361.44;10301248;28;20521;-63
2024/02/12 15:09:24;;;;;;;3.33;0.40;;;;;;;11.85;62.41;99361.03;10298446;28;20070;-62
2024/02/12 15:14:26;;;;;;;2.60;0.50;;;;;;;11.84;62.46;99366.63;10297847;28;20130;-61
2024/02/12 15:19:27;;;;;;;1.80;0.50;;;;;;;11.87;62.78;99382.38;10303547;28;20671;-68
2024/02/12 15:24:29;;;;;;;2.00;0.75;;;;;;;12.03;63.16;99381.97;10302453;28;20153;-66
2024/02/12 15:29:30;;;;;;;0.90;0.40;;;;;;;12.06;63.08;99397.69;10307321;28;20061;-66
2024/02/12 15:34:34;;;;;;;2.58;0.68;;;;;;;11.97;63.49;99398.16;10306590;28;20049;-67
2024/02/12 15:39:35;;;;;;;2.35;0.68;;;;;;;11.96;63.80;99409.94;10304743;28;20042;-69
2024/02/12 15:44:37;;;;;;;7.13;2.42;;;;;;;11.98;63.82;99415.94;10302375;28;20077;-67
2024/02/12 15:49:40;;;;;;;4.20;1.48;;;;;;;11.89;64.42;99421.56;10300861;28;20047;-75
2024/02/12 15:54:47;;;;;;;1.73;0.70;;;;;;;11.92;64.34;99432.94;10296863;28;20061;-74
2024/02/12 15:59:50;;;;;;;2.65;1.02;;;;;;;11.86;64.54;99435.38;10304529;28;20391;-76
2024/02/12 16:04:53;;;;;;;2.88;1.25;;;;;;;11.85;64.58;99441.00;10307479;28;20061;-76
2024/02/12 16:09:55;;;;;;;5.40;1.42;;;;;;;11.82;65.08;99444.09;10301782;28;20570;-72
2024/02/12 16:14:56;;;;;;;2.17;0.98;;;;;;;11.69;64.83;99451.13;10310571;28;20413;-72
2024/02/12 16:19:58;;;;;;;4.45;1.27;;;;;;;11.51;65.22;99450.88;10304353;28;20088;-75
2024/02/12 16:25:00;;;;;;;1.85;0.75;;;;;;;11.29;65.61;99466.38;10302967;28;20077;-75
2024/02/12 16:30:03;;;;;;;1.88;0.98;;;;;;;11.11;66.01;99470.44;10308084;28;20050;-74
2024/02/12 16:35:05;;;;;;;3.22;1.50;;;;;;;10.97;65.81;99492.13;10311924;23;20489;-74
2024/02/12 16:40:11;;;;;;;5.75;1.20;;;;;;;10.89;65.92;99498.47;10304178;28;20055;-72
2024/02/12 16:45:13;;;;;;;4.75;1.48;;;;;;;10.80;65.92;99513.09;10310735;28;20053;-75
2024/02/12 16:50:16;;;;;;;9.70;1.92;;;;;;;10.73;66.45;99521.16;10304148;28;20054;-69
2024/02/12 16:55:17;;;;;;;3.65;1.77;;;;;;;10.64;66.85;99535.75;10298632;28;20053;-63
2024/02/12 17:00:20;;;;;;;7.22;1.92;;;;;;;10.50;67.16;99543.75;10303118;28;20474;-60
2024/02/12 17:05:22;;;;;;;6.90;2.42;;;;;;;10.41;67.24;99547.59;10297937;28;20465;-59
2024/02/12 17:10:24;;;;;;;5.53;3.00;;;;;;;10.31;67.54;99564.03;10302322;28;20061;-59
2024/02/12 17:15:25;;;;;;;4.97;2.72;;;;;;;10.26;67.76;99577.19;10315951;28;20094;-59
2024/02/12 17:20:27;;;;;;;6.57;2.42;;;;;;;10.24;67.84;99583.78;10301122;28;20050;-60
2024/02/12 17:25:29;;;;;;;6.35;2.75;;;;;;;10.20;67.65;99604.00;10302740;28;20053;-60
2024/02/12 17:30:31;;;;;;;9.10;3.75;;;;;;;10.12;67.76;99607.63;10301457;28;20060;-60
2024/02/12 17:35:34;;;;;;;11.73;5.30;;;;;;;10.03;68.08;99615.00;10272015;28;1008429;-59
2024/02/12 17:40:36;;;;;;;11.48;4.03;;;;;;;9.92;68.32;99620.84;10306408;28;20079;-59
2024/02/12 17:45:38;;;;;;;8.23;4.30;;;;;;;9.81;68.73;99630.22;10304394;28;20046;-59
2024/02/12 17:50:39;;;;;;;6.95;2.95;;;;;;;9.69;68.90;99640.59;10306865;28;20097;-60
2024/02/12 17:55:41;;;;;;;7.55;2.72;;;;;;;9.56;69.24;99637.78;10305288;28;20132;-59
2024/02/12 18:00:44;;;;;;;12.75;2.88;;;;;;;9.47;69.53;99645.06;10309460;28;20050;-60
2024/02/12 18:05:46;;;;;;;8.13;3.78;;;;;;;9.44;69.76;99658.88;10304394;28;20058;-60
2024/02/12 18:10:48;;;;;;;7.68;4.25;;;;;;;9.43;69.59;99673.28;10307425;28;20421;-59
2024/02/12 18:15:51;;;;;;;11.13;3.72;;;;;;;9.45;69.83;99684.66;10301593;28;20517;-59
2024/02/12 18:20:52;;;;;;;6.75;3.53;;;;;;;9.50;69.62;99689.50;10300097;28;20054;-58
2024/02/12 18:25:57;;;;;;;8.73;3.92;;;;;;;9.57;69.71;99698.44;10322156;28;20126;-59
2024/02/12 18:30:59;;;;;;;12.75;4.90;;;;;;;9.56;69.93;99707.53;10330081;28;20043;-61
2024/02/12 18:36:00;;;;;;;7.78;3.88;;;;;;;9.62;70.01;99711.34;10302736;28;20078;-59
2024/02/12 18:41:09;;;;;;;7.63;3.78;;;;;;;9.71;69.67;99720.94;10299347;28;20113;-61
2024/02/12 18:46:13;;;;;;;11.02;4.40;;;;;;;9.71;70.15;99728.97;10299348;28;20069;-59
2024/02/12 18:51:15;;;;;;;10.68;4.20;;;;;;;9.81;70.08;99736.75;10297260;28;20066;-61
2024/02/12 18:56:16;;;;;;;9.40;4.57;;;;;;;9.87;69.75;99744.91;10297694;28;20058;-59
2024/02/12 19:01:18;;;;;;;11.82;2.97;;;;;;;9.83;69.91;99745.44;10296902;28;20116;-59
2024/02/12 19:06:23;;;;;;;5.72;0.95;;;;;;;9.84;70.02;99758.69;10295716;28;20898;-60
2024/02/12 19:11:25;;;;;;;4.45;1.48;;;;;;;9.90;69.65;99754.44;10301620;28;20108;-60
2024/02/12 19:16:26;;;;;;;10.00;3.15;;;;;;;9.87;69.21;99765.53;10301020;28;20054;-60
2024/02/12 19:21:28;;;;;;;16.55;7.03;;;;;;;9.83;69.43;99783.84;10295106;28;20046;-64
2024/02/12 19:26:29;;;;;;;12.57;4.70;;;;;;;9.78;69.30;99790.81;10302010;28;20132;-69
2024/02/12 19:31:31;;;;;;;8.07;2.47;;;;;;;9.72;69.58;99801.28;10300042;28;20127;-68
2024/02/12 19:36:34;;;;;;;4.88;2.08;;;;;;;9.66;69.02;99809.22;10291945;28;20046;-66
2024/02/12 19:41:37;;;;;;;10.95;4.10;;;;;;;9.64;69.28;99812.09;10301598;28;20055;-68
2024/02/12 19:46:39;;;;;;;3.72;0.90;;;;;;;9.44;69.68;99827.03;10307361;28;20053;-69
2024/02/12 19:51:40;;;;;;;4.82;0.50;;;;;;;9.27;69.88;99837.09;10296746;28;20051;-67
2024/02/12 19:56:45;;;;;;;1.67;0.40;;;;;;;9.22;69.24;99844.81;10281940;28;20463;-68
2024/02/12 20:01:47;;;;;;;2.67;0.30;;;;;;;9.20;68.99;99852.22;10293017;28;20265;-66
2024/02/12 20:06:48;;;;;;;2.40;0.95;;;;;;;9.20;68.57;99861.13;10294406;28;20062;-66
2024/02/12 20:11:51;;;;;;;1.73;0.50;;;;;;;9.17;68.39;99872.19;10294417;28;20066;-65
2024/02/12 20:16:54;;;;;;;2.85;0.40;;;;;;;9.09;68.04;99882.97;10295771;28;20137;-66
2024/02/12 20:21:55;;;;;;;4.28;0.60;;;;;;;8.88;68.40;99892.47;10302919;28;20047;-67
2024/02/12 20:26:57;;;;;;;4.22;1.70;;;;;;;8.74;68.47;99895.91;10298291;28;20097;-66
2024/02/12 20:31:58;;;;;;;4.22;1.08;;;;;;;8.68;68.18;99908.16;10293002;28;20497;-67
2024/02/12 20:37:01;;;;;;;4.15;0.73;;;;;;;8.57;68.22;99921.09;10298937;28;20043;-66
2024/02/12 20:42:06;;;;;;;3.97;0.55;;;;;;;8.44;68.28;99935.88;10290114;28;20062;-67
2024/02/12 20:47:10;;;;;;;3.28;0.70;;;;;;;8.36;68.25;99937.72;10300724;28;20105;-66
2024/02/12 20:52:12;;;;;;;5.95;0.70;;;;;;;8.15;69.00;99944.44;10301810;28;20113;-68
2024/02/12 20:57:14;;;;;;;2.47;0.45;;;;;;;8.12;69.16;99950.16;10312396;28;20054;-66
2024/02/12 21:02:16;;;;;;;1.05;0.30;;;;;;;8.15;68.77;99971.22;10297150;28;20133;-67
2024/02/12 21:07:18;;;;;;;1.30;0.40;;;;;;;8.24;69.07;99964.03;10306679;28;20054;-66
2024/02/12 21:12:19;;;;;;;2.35;0.35;;;;;;;8.31;68.58;99965.00;10286139;28;20050;-64
2024/02/12 21:17:21;;;;;;;0.47;0.22;;;;;;;8.39;68.76;99974.84;10295123;28;20129;-66
2024/02/12 21:22:23;;;;;;;2.03;0.30;;;;;;;8.42;68.40;99994.13;10295968;28;20050;-67
2024/02/12 21:27:26;;;;;;;0.28;0.20;;;;;;;8.47;68.20;99997.16;10296707;28;20529;-68
2024/02/12 21:32:28;;;;;;;1.52;0.40;;;;;;;8.53;68.12;100000.97;10302194;28;20121;-65
2024/02/12 21:37:32;;;;;;;0.80;0.30;;;;;;;8.49;68.30;100005.00;10303350;28;20054;-67
2024/02/12 21:42:33;;;;;;;3.38;0.40;;;;;;;8.48;67.82;100004.16;10304987;28;20055;-68
2024/02/12 21:47:35;;;;;;;1.80;0.50;;;;;;;8.41;68.25;100016.59;10301070;28;20043;-67
2024/02/12 21:52:37;;;;;;;2.72;0.45;;;;;;;8.34;67.96;100021.72;10308149;28;20129;-65
2024/02/12 21:57:39;;;;;;;2.78;0.70;;;;;;;8.31;68.28;100019.41;10303264;28;20061;-65
2024/02/12 22:02:43;;;;;;;1.77;0.80;;;;;;;8.34;68.11;100019.06;10302904;28;20082;-65
2024/02/12 22:07:47;;;;;;;3.42;1.40;;;;;;;8.23;68.38;100026.59;10301038;28;20052;-66
2024/02/12 22:12:48;;;;;;;5.35;1.33;;;;;;;8.20;67.79;100032.31;10301144;28;20053;-67
2024/02/12 22:17:49;;;;;;;5.07;0.98;;;;;;;8.11;68.06;100037.63;10300760;28;20046;-67
2024/02/12 22:22:52;;;;;;;3.85;0.57;;;;;;;7.99;68.26;100052.38;10301002;28;20050;-62
2024/02/12 22:27:53;;;;;;;4.70;0.80;;;;;;;7.86;68.01;100068.94;10304390;28;20157;-63
2024/02/12 22:32:57;;;;;;;5.15;1.10;;;;;;;7.77;68.16;100079.78;10299578;28;20137;-61
2024/02/12 22:37:59;;;;;;;7.25;1.10;;;;;;;7.62;67.95;100088.47;10296684;28;20540;-63
2024/02/12 22:43:01;;;;;;;1.90;0.80;;;;;;;7.48;68.51;100097.09;10292055;28;20059;-63
2024/02/12 22:48:05;;;;;;;3.78;1.30;;;;;;;7.30;68.92;100100.69;10293658;28;20488;-62
2024/02/12 22:53:10;;;;;;;5.13;1.42;;;;;;;7.16;68.84;100117.34;10305577;28;20062;-61
2024/02/12 22:58:11;;;;;;;3.50;1.27;;;;;;;7.04;69.34;100132.00;10300730;28;20502;-59
2024/02/12 23:03:13;;;;;;;4.63;1.02;;;;;;;6.93;69.50;100128.59;10303877;28;20078;-60
2024/02/12 23:08:15;;;;;;;5.82;1.00;;;;;;;6.82;69.30;100134.19;10300185;28;20061;-60
2024/02/12 23:13:17;;;;;;;2.40;0.93;;;;;;;6.63;69.58;100155.75;10301815;28;20516;-60
2024/02/12 23:18:18;;;;;;;7.40;1.20;;;;;;;6.68;69.79;100156.13;10299700;28;20424;-59
2024/02/12 23:23:21;;;;;;;3.25;0.85;;;;;;;6.69;69.51;100171.97;10295960;28;20059;-61
2024/02/12 23:28:22;;;;;;;4.88;1.23;;;;;;;6.68;70.15;100181.00;10303119;28;20057;-59
2024/02/12 23:33:25;;;;;;;2.40;1.10;;;;;;;6.62;69.71;100188.81;10298496;28;20089;-60
2024/02/12 23:38:29;;;;;;;6.10;1.55;;;;;;;6.52;70.15;100192.41;10296143;28;20375;-59
2024/02/12 23:43:30;;;;;;;7.18;1.63;;;;;;;6.49;70.07;100200.69;10300610;28;20047;-60